sensor_id;sensor_type;location;lat;lon;timestamp;temperature;humidity
75430;DHT22;64127;51.488;5.462;2022-12-07T00:06:33;7.50;99.90
75430;DHT22;64127;51.488;5.462;2022-12-07T00:09:09;7.50;99.90
75430;DHT22;64127;51.488;5.462;2022-12-07T00:11:43;7.50;99.90
75430;DHT22;64127;51.488;5.462;2022-12-07T00:14:16;7.50;99.90
75430;DHT22;64127;51.488;5.462;2022-12-07T00:16:50;7.50;99.90
75430;DHT22;64127;51.488;5.462;2022-12-07T00:19:23;7.40;99.90
75430;DHT22;64127;51.488;5.462;2022-12-07T00:21:55;7.50;99.90
75430;DHT22;64127;51.488;5.462;2022-12-07T00:24:27;7.40;99.90
75430;DHT22;64127;51.488;5.462;2022-12-07T00:26:59;7.50;99.90
75430;DHT22;64127;51.488;5.462;2022-12-07T00:29:31;7.40;99.90
75430;DHT22;64127;51.488;5.462;2022-12-07T00:32:03;7.50;99.90
75430;DHT22;64127;51.488;5.462;2022-12-07T00:34:35;7.40;99.90
75430;DHT22;64127;51.488;5.462;2022-12-07T00:37:07;7.40;99.90
75430;DHT22;64127;51.488;5.462;2022-12-07T00:39:39;7.30;99.90
75430;DHT22;64127;51.488;5.462;2022-12-07T00:42:11;7.30;99.90
75430;DHT22;64127;51.488;5.462;2022-12-07T00:44:43;7.30;99.90
75430;DHT22;64127;51.488;5.462;2022-12-07T00:47:15;7.20;99.90
75430;DHT22;64127;51.488;5.462;2022-12-07T00:49:47;7.20;99.90
75430;DHT22;64127;51.488;5.462;2022-12-07T00:52:19;7.10;99.90
75430;DHT22;64127;51.488;5.462;2022-12-07T00:54:51;7.10;99.90
75430;DHT22;64127;51.488;5.462;2022-12-07T00:57:23;7.10;99.90
75430;DHT22;64127;51.488;5.462;2022-12-07T00:59:55;7.10;99.90
75430;DHT22;64127;51.488;5.462;2022-12-07T01:02:29;7.10;99.90
75430;DHT22;64127;51.488;5.462;2022-12-07T01:21:41;7.00;99.90
75430;DHT22;64127;51.488;5.462;2022-12-07T01:24:14;7.00;99.90
75430;DHT22;64127;51.488;5.462;2022-12-07T01:26:45;6.90;99.90
75430;DHT22;64127;51.488;5.462;2022-12-07T01:29:21;7.00;99.90
75430;DHT22;64127;51.488;5.462;2022-12-07T01:31:53;6.90;99.90
75430;DHT22;64127;51.488;5.462;2022-12-07T01:38:36;6.90;99.90
75430;DHT22;64127;51.488;5.462;2022-12-07T01:41:09;6.90;99.90
75430;DHT22;64127;51.488;5.462;2022-12-07T01:46:59;6.90;99.90
75430;DHT22;64127;51.488;5.462;2022-12-07T01:49:48;6.90;99.90
75430;DHT22;64127;51.488;5.462;2022-12-07T01:52:23;7.00;99.90
75430;DHT22;64127;51.488;5.462;2022-12-07T01:55:03;7.00;99.90
75430;DHT22;64127;51.488;5.462;2022-12-07T01:57:45;7.00;99.90
75430;DHT22;64127;51.488;5.462;2022-12-07T02:00:20;7.00;99.90
75430;DHT22;64127;51.488;5.462;2022-12-07T02:05:32;7.00;99.90
75430;DHT22;64127;51.488;5.462;2022-12-07T02:08:06;7.00;99.90
75430;DHT22;64127;51.488;5.462;2022-12-07T02:10:39;7.00;99.90
75430;DHT22;64127;51.488;5.462;2022-12-07T02:13:32;7.10;99.90
75430;DHT22;64127;51.488;5.462;2022-12-07T02:16:18;7.10;99.90
75430;DHT22;64127;51.488;5.462;2022-12-07T02:30:47;7.10;99.90
75430;DHT22;64127;51.488;5.462;2022-12-07T02:33:29;7.10;99.90
75430;DHT22;64127;51.488;5.462;2022-12-07T02:36:12;7.00;99.90
75430;DHT22;64127;51.488;5.462;2022-12-07T02:39:08;7.00;99.90
75430;DHT22;64127;51.488;5.462;2022-12-07T02:41:52;7.00;99.90
75430;DHT22;64127;51.488;5.462;2022-12-07T02:44:30;7.00;99.90
75430;DHT22;64127;51.488;5.462;2022-12-07T02:47:07;7.00;99.90
75430;DHT22;64127;51.488;5.462;2022-12-07T02:49:43;7.00;99.90
75430;DHT22;64127;51.488;5.462;2022-12-07T02:52:15;7.00;99.90
75430;DHT22;64127;51.488;5.462;2022-12-07T02:54:47;7.00;99.90
75430;DHT22;64127;51.488;5.462;2022-12-07T03:00:14;7.00;99.90
75430;DHT22;64127;51.488;5.462;2022-12-07T03:03:09;7.00;99.90
75430;DHT22;64127;51.488;5.462;2022-12-07T03:06:09;7.00;99.90
75430;DHT22;64127;51.488;5.462;2022-12-07T03:12:04;7.00;99.90
75430;DHT22;64127;51.488;5.462;2022-12-07T03:14:52;7.00;99.90
75430;DHT22;64127;51.488;5.462;2022-12-07T03:17:34;7.00;99.90
75430;DHT22;64127;51.488;5.462;2022-12-07T03:20:12;7.00;99.90
75430;DHT22;64127;51.488;5.462;2022-12-07T03:22:47;7.00;99.90
75430;DHT22;64127;51.488;5.462;2022-12-07T03:25:20;7.00;99.90
75430;DHT22;64127;51.488;5.462;2022-12-07T03:27:57;7.00;99.90
75430;DHT22;64127;51.488;5.462;2022-12-07T03:30:46;6.90;99.90
75430;DHT22;64127;51.488;5.462;2022-12-07T03:33:38;7.00;99.90
75430;DHT22;64127;51.488;5.462;2022-12-07T03:36:40;6.90;99.90
75430;DHT22;64127;51.488;5.462;2022-12-07T03:39:26;6.90;99.90
75430;DHT22;64127;51.488;5.462;2022-12-07T03:42:04;6.80;99.90
75430;DHT22;64127;51.488;5.462;2022-12-07T03:44:38;6.80;99.90
75430;DHT22;64127;51.488;5.462;2022-12-07T03:47:29;6.80;99.90
75430;DHT22;64127;51.488;5.462;2022-12-07T03:53:31;6.80;99.90
75430;DHT22;64127;51.488;5.462;2022-12-07T03:56:09;6.80;99.90
75430;DHT22;64127;51.488;5.462;2022-12-07T03:58:42;6.80;99.90
75430;DHT22;64127;51.488;5.462;2022-12-07T04:01:15;6.80;99.90
75430;DHT22;64127;51.488;5.462;2022-12-07T04:03:49;6.80;99.90
75430;DHT22;64127;51.488;5.462;2022-12-07T04:06:21;6.80;99.90
75430;DHT22;64127;51.488;5.462;2022-12-07T04:08:53;6.80;99.90
75430;DHT22;64127;51.488;5.462;2022-12-07T04:11:25;6.80;99.90
75430;DHT22;64127;51.488;5.462;2022-12-07T04:13:57;6.80;99.90
75430;DHT22;64127;51.488;5.462;2022-12-07T04:16:52;6.80;99.90
75430;DHT22;64127;51.488;5.462;2022-12-07T04:19:30;6.80;99.90
75430;DHT22;64127;51.488;5.462;2022-12-07T04:22:05;6.80;99.90
75430;DHT22;64127;51.488;5.462;2022-12-07T04:24:38;6.80;99.90
75430;DHT22;64127;51.488;5.462;2022-12-07T04:27:10;6.80;99.90
75430;DHT22;64127;51.488;5.462;2022-12-07T04:29:43;6.80;99.90
75430;DHT22;64127;51.488;5.462;2022-12-07T04:32:15;6.80;99.90
75430;DHT22;64127;51.488;5.462;2022-12-07T04:34:47;6.80;99.90
75430;DHT22;64127;51.488;5.462;2022-12-07T04:37:25;6.80;99.90
75430;DHT22;64127;51.488;5.462;2022-12-07T04:39:57;6.80;99.90
75430;DHT22;64127;51.488;5.462;2022-12-07T04:42:30;6.80;99.90
75430;DHT22;64127;51.488;5.462;2022-12-07T04:45:02;6.80;99.90
75430;DHT22;64127;51.488;5.462;2022-12-07T04:47:34;6.80;99.90
75430;DHT22;64127;51.488;5.462;2022-12-07T04:50:07;6.90;99.90
75430;DHT22;64127;51.488;5.462;2022-12-07T04:52:41;6.90;99.90
75430;DHT22;64127;51.488;5.462;2022-12-07T04:55:13;6.90;99.90
75430;DHT22;64127;51.488;5.462;2022-12-07T04:57:45;6.90;99.90
75430;DHT22;64127;51.488;5.462;2022-12-07T05:00:17;6.90;99.90
75430;DHT22;64127;51.488;5.462;2022-12-07T05:02:49;7.00;99.90
75430;DHT22;64127;51.488;5.462;2022-12-07T05:05:21;7.00;99.90
75430;DHT22;64127;51.488;5.462;2022-12-07T05:07:53;7.00;99.90
75430;DHT22;64127;51.488;5.462;2022-12-07T05:10:25;6.90;99.90
75430;DHT22;64127;51.488;5.462;2022-12-07T05:12:57;6.90;99.90
75430;DHT22;64127;51.488;5.462;2022-12-07T05:15:29;6.90;99.90
75430;DHT22;64127;51.488;5.462;2022-12-07T05:18:01;6.90;99.90
75430;DHT22;64127;51.488;5.462;2022-12-07T05:20:34;6.90;99.90
75430;DHT22;64127;51.488;5.462;2022-12-07T05:23:13;6.90;99.90
75430;DHT22;64127;51.488;5.462;2022-12-07T05:25:45;6.90;99.90
75430;DHT22;64127;51.488;5.462;2022-12-07T05:28:18;6.90;99.90
75430;DHT22;64127;51.488;5.462;2022-12-07T05:30:50;7.00;99.90
75430;DHT22;64127;51.488;5.462;2022-12-07T05:33:28;7.00;99.90
75430;DHT22;64127;51.488;5.462;2022-12-07T05:36:00;7.00;99.90
75430;DHT22;64127;51.488;5.462;2022-12-07T05:38:37;7.00;99.90
75430;DHT22;64127;51.488;5.462;2022-12-07T05:41:12;7.00;99.90
75430;DHT22;64127;51.488;5.462;2022-12-07T05:44:05;7.00;99.90
75430;DHT22;64127;51.488;5.462;2022-12-07T05:46:37;7.00;99.90
75430;DHT22;64127;51.488;5.462;2022-12-07T05:49:09;7.00;99.90
75430;DHT22;64127;51.488;5.462;2022-12-07T05:51:41;7.00;99.90
75430;DHT22;64127;51.488;5.462;2022-12-07T05:54:13;7.00;99.90
75430;DHT22;64127;51.488;5.462;2022-12-07T05:56:45;7.00;99.90
75430;DHT22;64127;51.488;5.462;2022-12-07T05:59:17;7.00;99.90
75430;DHT22;64127;51.488;5.462;2022-12-07T06:01:56;7.00;99.90
75430;DHT22;64127;51.488;5.462;2022-12-07T06:04:47;7.10;99.90
75430;DHT22;64127;51.488;5.462;2022-12-07T06:07:19;7.00;99.90
75430;DHT22;64127;51.488;5.462;2022-12-07T06:09:51;7.00;99.90
75430;DHT22;64127;51.488;5.462;2022-12-07T06:12:24;7.00;99.90
75430;DHT22;64127;51.488;5.462;2022-12-07T06:15:10;7.00;99.90
75430;DHT22;64127;51.488;5.462;2022-12-07T06:17:44;7.00;99.90
75430;DHT22;64127;51.488;5.462;2022-12-07T06:20:16;7.00;99.90
75430;DHT22;64127;51.488;5.462;2022-12-07T06:22:48;6.90;99.90
75430;DHT22;64127;51.488;5.462;2022-12-07T06:25:20;6.90;99.90
75430;DHT22;64127;51.488;5.462;2022-12-07T06:27:52;6.80;99.90
75430;DHT22;64127;51.488;5.462;2022-12-07T06:30:26;6.80;99.90
75430;DHT22;64127;51.488;5.462;2022-12-07T06:32:58;6.80;99.90
75430;DHT22;64127;51.488;5.462;2022-12-07T06:35:32;6.70;99.90
75430;DHT22;64127;51.488;5.462;2022-12-07T06:38:05;6.70;99.90
75430;DHT22;64127;51.488;5.462;2022-12-07T06:40:37;6.70;99.90
75430;DHT22;64127;51.488;5.462;2022-12-07T06:43:09;6.70;99.90
75430;DHT22;64127;51.488;5.462;2022-12-07T06:45:41;6.70;99.90
75430;DHT22;64127;51.488;5.462;2022-12-07T06:48:13;6.70;99.90
75430;DHT22;64127;51.488;5.462;2022-12-07T06:50:46;6.70;99.90
75430;DHT22;64127;51.488;5.462;2022-12-07T06:53:25;6.70;99.90
75430;DHT22;64127;51.488;5.462;2022-12-07T06:55:57;6.70;99.90
75430;DHT22;64127;51.488;5.462;2022-12-07T06:58:29;6.70;99.90
75430;DHT22;64127;51.488;5.462;2022-12-07T07:01:02;6.60;99.90
75430;DHT22;64127;51.488;5.462;2022-12-07T07:03:34;6.60;99.90
75430;DHT22;64127;51.488;5.462;2022-12-07T07:06:07;6.50;99.90
75430;DHT22;64127;51.488;5.462;2022-12-07T07:08:40;6.50;99.90
75430;DHT22;64127;51.488;5.462;2022-12-07T07:11:12;6.50;99.90
75430;DHT22;64127;51.488;5.462;2022-12-07T07:13:45;6.40;99.90
75430;DHT22;64127;51.488;5.462;2022-12-07T07:16:17;6.40;99.90
75430;DHT22;64127;51.488;5.462;2022-12-07T07:18:49;6.40;99.90
75430;DHT22;64127;51.488;5.462;2022-12-07T07:21:21;6.40;99.90
75430;DHT22;64127;51.488;5.462;2022-12-07T07:23:53;6.40;99.90
75430;DHT22;64127;51.488;5.462;2022-12-07T07:26:25;6.40;99.90
75430;DHT22;64127;51.488;5.462;2022-12-07T07:28:57;6.40;99.90
75430;DHT22;64127;51.488;5.462;2022-12-07T07:31:29;6.40;99.90
75430;DHT22;64127;51.488;5.462;2022-12-07T07:34:01;6.30;99.90
75430;DHT22;64127;51.488;5.462;2022-12-07T07:36:33;6.40;99.90
75430;DHT22;64127;51.488;5.462;2022-12-07T07:39:05;6.40;99.90
75430;DHT22;64127;51.488;5.462;2022-12-07T07:41:37;6.50;99.90
75430;DHT22;64127;51.488;5.462;2022-12-07T07:44:09;6.50;99.90
75430;DHT22;64127;51.488;5.462;2022-12-07T07:46:41;6.50;99.90
75430;DHT22;64127;51.488;5.462;2022-12-07T07:49:13;6.50;99.90
75430;DHT22;64127;51.488;5.462;2022-12-07T07:51:45;6.50;99.90
75430;DHT22;64127;51.488;5.462;2022-12-07T07:54:17;6.50;99.90
75430;DHT22;64127;51.488;5.462;2022-12-07T07:56:49;6.60;99.90
75430;DHT22;64127;51.488;5.462;2022-12-07T07:59:21;6.60;99.90
75430;DHT22;64127;51.488;5.462;2022-12-07T08:01:53;6.50;99.90
75430;DHT22;64127;51.488;5.462;2022-12-07T08:04:25;6.50;99.90
75430;DHT22;64127;51.488;5.462;2022-12-07T08:06:57;6.50;99.90
75430;DHT22;64127;51.488;5.462;2022-12-07T08:09:29;6.50;99.90
75430;DHT22;64127;51.488;5.462;2022-12-07T08:12:01;6.50;99.90
75430;DHT22;64127;51.488;5.462;2022-12-07T08:14:34;6.50;99.90
75430;DHT22;64127;51.488;5.462;2022-12-07T08:17:06;6.50;99.90
75430;DHT22;64127;51.488;5.462;2022-12-07T08:19:38;6.50;99.90
75430;DHT22;64127;51.488;5.462;2022-12-07T08:22:10;6.50;99.90
75430;DHT22;64127;51.488;5.462;2022-12-07T08:24:42;6.50;99.90
75430;DHT22;64127;51.488;5.462;2022-12-07T08:27:14;6.50;99.90
75430;DHT22;64127;51.488;5.462;2022-12-07T08:29:46;6.40;99.90
75430;DHT22;64127;51.488;5.462;2022-12-07T08:32:18;6.40;99.90
75430;DHT22;64127;51.488;5.462;2022-12-07T08:34:52;6.40;99.90
75430;DHT22;64127;51.488;5.462;2022-12-07T08:37:24;6.40;99.90
75430;DHT22;64127;51.488;5.462;2022-12-07T08:39:56;6.50;99.90
75430;DHT22;64127;51.488;5.462;2022-12-07T08:42:27;6.50;99.90
75430;DHT22;64127;51.488;5.462;2022-12-07T08:45:01;6.50;99.90
75430;DHT22;64127;51.488;5.462;2022-12-07T08:47:35;6.60;99.90
75430;DHT22;64127;51.488;5.462;2022-12-07T08:50:10;6.60;99.90
75430;DHT22;64127;51.488;5.462;2022-12-07T08:52:43;6.70;99.90
75430;DHT22;64127;51.488;5.462;2022-12-07T08:55:15;6.70;99.90
75430;DHT22;64127;51.488;5.462;2022-12-07T08:57:48;6.70;99.90
75430;DHT22;64127;51.488;5.462;2022-12-07T09:00:20;6.70;99.90
75430;DHT22;64127;51.488;5.462;2022-12-07T09:02:53;6.70;99.90
75430;DHT22;64127;51.488;5.462;2022-12-07T09:05:26;6.70;99.90
75430;DHT22;64127;51.488;5.462;2022-12-07T09:08:00;6.70;99.90
75430;DHT22;64127;51.488;5.462;2022-12-07T09:10:33;6.70;99.90
75430;DHT22;64127;51.488;5.462;2022-12-07T09:13:05;6.80;99.90
75430;DHT22;64127;51.488;5.462;2022-12-07T09:15:37;6.80;99.90
75430;DHT22;64127;51.488;5.462;2022-12-07T09:18:09;6.80;99.90
75430;DHT22;64127;51.488;5.462;2022-12-07T09:20:41;6.80;99.90
75430;DHT22;64127;51.488;5.462;2022-12-07T09:23:13;6.80;99.90
75430;DHT22;64127;51.488;5.462;2022-12-07T09:25:45;6.80;99.90
75430;DHT22;64127;51.488;5.462;2022-12-07T09:28:17;6.80;99.90
75430;DHT22;64127;51.488;5.462;2022-12-07T09:30:49;6.90;99.90
75430;DHT22;64127;51.488;5.462;2022-12-07T09:33:41;6.90;99.90
75430;DHT22;64127;51.488;5.462;2022-12-07T09:36:13;6.90;99.90
75430;DHT22;64127;51.488;5.462;2022-12-07T09:38:45;7.00;99.90
75430;DHT22;64127;51.488;5.462;2022-12-07T09:41:17;7.00;99.90
75430;DHT22;64127;51.488;5.462;2022-12-07T09:43:51;7.00;99.90
75430;DHT22;64127;51.488;5.462;2022-12-07T09:46:24;7.00;99.90
75430;DHT22;64127;51.488;5.462;2022-12-07T09:48:57;7.00;99.90
75430;DHT22;64127;51.488;5.462;2022-12-07T09:51:29;7.00;99.90
75430;DHT22;64127;51.488;5.462;2022-12-07T09:54:01;7.00;99.90
75430;DHT22;64127;51.488;5.462;2022-12-07T09:56:34;7.20;99.90
75430;DHT22;64127;51.488;5.462;2022-12-07T09:59:06;7.50;99.90
75430;DHT22;64127;51.488;5.462;2022-12-07T10:01:41;7.80;99.90
75430;DHT22;64127;51.488;5.462;2022-12-07T10:04:16;8.30;99.90
75430;DHT22;64127;51.488;5.462;2022-12-07T10:06:53;9.00;99.90
75430;DHT22;64127;51.488;5.462;2022-12-07T10:09:25;9.50;99.90
75430;DHT22;64127;51.488;5.462;2022-12-07T10:12:09;9.70;99.90
75430;DHT22;64127;51.488;5.462;2022-12-07T10:15:09;9.60;99.90
75430;DHT22;64127;51.488;5.462;2022-12-07T10:17:48;9.50;99.90
75430;DHT22;64127;51.488;5.462;2022-12-07T10:20:26;9.30;99.90
75430;DHT22;64127;51.488;5.462;2022-12-07T10:23:05;9.00;99.90
75430;DHT22;64127;51.488;5.462;2022-12-07T10:25:45;8.90;99.90
75430;DHT22;64127;51.488;5.462;2022-12-07T10:28:19;9.20;99.90
75430;DHT22;64127;51.488;5.462;2022-12-07T10:37:17;10.20;99.90
75430;DHT22;64127;51.488;5.462;2022-12-07T10:39:55;10.10;99.90
75430;DHT22;64127;51.488;5.462;2022-12-07T10:42:30;10.10;99.90
75430;DHT22;64127;51.488;5.462;2022-12-07T10:57:37;10.90;99.90
75430;DHT22;64127;51.488;5.462;2022-12-07T11:00:23;11.70;99.90
75430;DHT22;64127;51.488;5.462;2022-12-07T11:03:06;12.30;99.90
75430;DHT22;64127;51.488;5.462;2022-12-07T11:06:07;12.60;99.80
75430;DHT22;64127;51.488;5.462;2022-12-07T11:15:51;12.00;99.30
75430;DHT22;64127;51.488;5.462;2022-12-07T11:21:55;11.20;99.70
75430;DHT22;64127;51.488;5.462;2022-12-07T11:27:54;10.50;99.90
75430;DHT22;64127;51.488;5.462;2022-12-07T11:48:19;9.20;99.90
75430;DHT22;64127;51.488;5.462;2022-12-07T11:51:01;9.20;99.90
75430;DHT22;64127;51.488;5.462;2022-12-07T11:53:51;9.20;99.90
75430;DHT22;64127;51.488;5.462;2022-12-07T11:56:35;9.10;99.90
75430;DHT22;64127;51.488;5.462;2022-12-07T11:59:19;9.00;99.90
75430;DHT22;64127;51.488;5.462;2022-12-07T12:02:26;8.90;99.90
75430;DHT22;64127;51.488;5.462;2022-12-07T12:05:13;8.90;99.90
75430;DHT22;64127;51.488;5.462;2022-12-07T12:08:18;8.90;99.90
75430;DHT22;64127;51.488;5.462;2022-12-07T12:15:17;8.80;99.90
75430;DHT22;64127;51.488;5.462;2022-12-07T12:21:09;8.70;99.90
75430;DHT22;64127;51.488;5.462;2022-12-07T12:24:03;8.70;99.90
75430;DHT22;64127;51.488;5.462;2022-12-07T12:26:59;8.70;99.90
75430;DHT22;64127;51.488;5.462;2022-12-07T12:29:59;8.90;99.90
75430;DHT22;64127;51.488;5.462;2022-12-07T12:32:39;9.30;99.90
75430;DHT22;64127;51.488;5.462;2022-12-07T12:35:33;9.60;99.90
75430;DHT22;64127;51.488;5.462;2022-12-07T12:50:36;11.60;99.40
75430;DHT22;64127;51.488;5.462;2022-12-07T12:53:24;11.80;99.30
75430;DHT22;64127;51.488;5.462;2022-12-07T12:56:40;11.80;99.00
75430;DHT22;64127;51.488;5.462;2022-12-07T12:59:36;11.50;98.80
75430;DHT22;64127;51.488;5.462;2022-12-07T13:02:26;11.00;98.80
75430;DHT22;64127;51.488;5.462;2022-12-07T13:05:30;10.70;98.90
75430;DHT22;64127;51.488;5.462;2022-12-07T13:08:17;10.40;99.20
75430;DHT22;64127;51.488;5.462;2022-12-07T13:11:39;10.30;99.30
75430;DHT22;64127;51.488;5.462;2022-12-07T13:20:07;9.70;99.90
75430;DHT22;64127;51.488;5.462;2022-12-07T13:22:49;9.50;99.90
75430;DHT22;64127;51.488;5.462;2022-12-07T13:25:36;9.50;99.90
75430;DHT22;64127;51.488;5.462;2022-12-07T13:28:17;9.40;99.90
75430;DHT22;64127;51.488;5.462;2022-12-07T13:33:47;9.40;99.90
75430;DHT22;64127;51.488;5.462;2022-12-07T13:36:21;9.30;99.90
75430;DHT22;64127;51.488;5.462;2022-12-07T13:39:00;9.30;99.90
75430;DHT22;64127;51.488;5.462;2022-12-07T13:41:58;9.30;99.90
75430;DHT22;64127;51.488;5.462;2022-12-07T13:44:39;9.70;99.90
75430;DHT22;64127;51.488;5.462;2022-12-07T13:47:15;10.00;99.80
75430;DHT22;64127;51.488;5.462;2022-12-07T13:49:56;10.00;99.60
75430;DHT22;64127;51.488;5.462;2022-12-07T13:52:30;9.90;99.90
75430;DHT22;64127;51.488;5.462;2022-12-07T13:57:38;9.50;99.90
75430;DHT22;64127;51.488;5.462;2022-12-07T14:00:20;9.50;99.90
75430;DHT22;64127;51.488;5.462;2022-12-07T14:05:46;9.20;99.90
75430;DHT22;64127;51.488;5.462;2022-12-07T14:08:34;9.10;99.90
75430;DHT22;64127;51.488;5.462;2022-12-07T14:11:19;9.10;99.90
75430;DHT22;64127;51.488;5.462;2022-12-07T14:14:02;9.10;99.90
75430;DHT22;64127;51.488;5.462;2022-12-07T14:16:36;9.10;99.90
75430;DHT22;64127;51.488;5.462;2022-12-07T14:22:31;9.00;99.90
75430;DHT22;64127;51.488;5.462;2022-12-07T14:28:03;8.90;99.90
75430;DHT22;64127;51.488;5.462;2022-12-07T14:30:35;8.80;99.90
75430;DHT22;64127;51.488;5.462;2022-12-07T14:33:08;8.80;99.90
75430;DHT22;64127;51.488;5.462;2022-12-07T14:35:41;8.80;99.90
75430;DHT22;64127;51.488;5.462;2022-12-07T14:38:13;8.80;99.90
75430;DHT22;64127;51.488;5.462;2022-12-07T14:40:52;8.80;99.90
75430;DHT22;64127;51.488;5.462;2022-12-07T14:43:25;8.80;99.90
75430;DHT22;64127;51.488;5.462;2022-12-07T14:45:57;8.80;99.90
75430;DHT22;64127;51.488;5.462;2022-12-07T14:48:34;8.80;99.90
75430;DHT22;64127;51.488;5.462;2022-12-07T14:51:33;8.70;99.90
75430;DHT22;64127;51.488;5.462;2022-12-07T14:54:31;8.70;99.90
75430;DHT22;64127;51.488;5.462;2022-12-07T14:57:04;8.70;99.90
75430;DHT22;64127;51.488;5.462;2022-12-07T14:59:37;8.60;99.90
75430;DHT22;64127;51.488;5.462;2022-12-07T15:02:16;8.60;99.90
75430;DHT22;64127;51.488;5.462;2022-12-07T15:04:48;8.60;99.90
75430;DHT22;64127;51.488;5.462;2022-12-07T15:07:21;8.60;99.90
75430;DHT22;64127;51.488;5.462;2022-12-07T15:09:54;8.60;99.90
75430;DHT22;64127;51.488;5.462;2022-12-07T15:12:26;8.60;99.90
75430;DHT22;64127;51.488;5.462;2022-12-07T15:15:00;8.50;99.90
75430;DHT22;64127;51.488;5.462;2022-12-07T15:17:33;8.50;99.90
75430;DHT22;64127;51.488;5.462;2022-12-07T15:20:10;8.60;99.90
75430;DHT22;64127;51.488;5.462;2022-12-07T15:22:44;8.50;99.90
75430;DHT22;64127;51.488;5.462;2022-12-07T15:25:19;8.50;99.90
75430;DHT22;64127;51.488;5.462;2022-12-07T15:27:51;8.50;99.90
75430;DHT22;64127;51.488;5.462;2022-12-07T15:30:23;8.50;99.90
75430;DHT22;64127;51.488;5.462;2022-12-07T15:32:55;8.40;99.90
75430;DHT22;64127;51.488;5.462;2022-12-07T15:35:28;8.40;99.90
75430;DHT22;64127;51.488;5.462;2022-12-07T15:38:00;8.40;99.90
75430;DHT22;64127;51.488;5.462;2022-12-07T15:40:41;8.30;99.90
75430;DHT22;64127;51.488;5.462;2022-12-07T15:43:13;8.40;99.90
75430;DHT22;64127;51.488;5.462;2022-12-07T15:46:04;8.40;99.90
75430;DHT22;64127;51.488;5.462;2022-12-07T15:48:37;8.30;99.90
75430;DHT22;64127;51.488;5.462;2022-12-07T15:51:09;8.30;99.90
75430;DHT22;64127;51.488;5.462;2022-12-07T15:53:44;8.30;99.90
75430;DHT22;64127;51.488;5.462;2022-12-07T15:56:17;8.30;99.90
75430;DHT22;64127;51.488;5.462;2022-12-07T15:58:51;8.40;99.90
75430;DHT22;64127;51.488;5.462;2022-12-07T16:01:23;8.30;99.90
75430;DHT22;64127;51.488;5.462;2022-12-07T16:03:57;8.30;99.90
75430;DHT22;64127;51.488;5.462;2022-12-07T16:06:33;8.30;99.90
75430;DHT22;64127;51.488;5.462;2022-12-07T16:09:06;8.30;99.90
75430;DHT22;64127;51.488;5.462;2022-12-07T16:11:38;8.30;99.90
75430;DHT22;64127;51.488;5.462;2022-12-07T16:14:15;8.20;99.90
75430;DHT22;64127;51.488;5.462;2022-12-07T16:16:49;8.20;99.90
75430;DHT22;64127;51.488;5.462;2022-12-07T16:19:24;8.20;99.90
75430;DHT22;64127;51.488;5.462;2022-12-07T16:22:04;8.20;99.90
75430;DHT22;64127;51.488;5.462;2022-12-07T16:24:36;8.20;99.90
75430;DHT22;64127;51.488;5.462;2022-12-07T16:27:09;8.20;99.90
75430;DHT22;64127;51.488;5.462;2022-12-07T16:29:41;8.20;99.90
75430;DHT22;64127;51.488;5.462;2022-12-07T16:32:16;8.20;99.90
75430;DHT22;64127;51.488;5.462;2022-12-07T16:34:48;8.20;99.90
75430;DHT22;64127;51.488;5.462;2022-12-07T16:37:23;8.20;99.90
75430;DHT22;64127;51.488;5.462;2022-12-07T16:39:55;8.10;99.90
75430;DHT22;64127;51.488;5.462;2022-12-07T16:42:34;8.10;99.90
75430;DHT22;64127;51.488;5.462;2022-12-07T16:45:07;8.10;99.90
75430;DHT22;64127;51.488;5.462;2022-12-07T16:47:40;8.10;99.90
75430;DHT22;64127;51.488;5.462;2022-12-07T16:50:12;8.10;99.90
75430;DHT22;64127;51.488;5.462;2022-12-07T16:52:45;8.10;99.90
75430;DHT22;64127;51.488;5.462;2022-12-07T16:55:17;8.10;99.90
75430;DHT22;64127;51.488;5.462;2022-12-07T16:57:49;8.00;99.90
75430;DHT22;64127;51.488;5.462;2022-12-07T17:00:21;8.00;99.90
75430;DHT22;64127;51.488;5.462;2022-12-07T17:02:53;8.00;99.90
75430;DHT22;64127;51.488;5.462;2022-12-07T17:05:26;8.00;99.90
75430;DHT22;64127;51.488;5.462;2022-12-07T17:08:02;8.00;99.90
75430;DHT22;64127;51.488;5.462;2022-12-07T17:10:36;7.90;99.90
75430;DHT22;64127;51.488;5.462;2022-12-07T17:13:13;7.90;99.90
75430;DHT22;64127;51.488;5.462;2022-12-07T17:16:05;7.90;99.90
75430;DHT22;64127;51.488;5.462;2022-12-07T17:18:40;7.80;99.90
75430;DHT22;64127;51.488;5.462;2022-12-07T17:21:12;7.80;99.90
75430;DHT22;64127;51.488;5.462;2022-12-07T17:23:45;7.80;99.90
75430;DHT22;64127;51.488;5.462;2022-12-07T17:26:22;7.80;99.90
75430;DHT22;64127;51.488;5.462;2022-12-07T17:29:04;7.70;99.90
75430;DHT22;64127;51.488;5.462;2022-12-07T17:31:38;7.70;99.90
75430;DHT22;64127;51.488;5.462;2022-12-07T17:34:14;7.70;99.90
75430;DHT22;64127;51.488;5.462;2022-12-07T17:36:47;7.70;99.90
75430;DHT22;64127;51.488;5.462;2022-12-07T17:39:19;7.70;99.90
75430;DHT22;64127;51.488;5.462;2022-12-07T17:41:51;7.80;99.90
75430;DHT22;64127;51.488;5.462;2022-12-07T17:44:42;7.80;99.90
75430;DHT22;64127;51.488;5.462;2022-12-07T17:47:14;7.70;99.90
75430;DHT22;64127;51.488;5.462;2022-12-07T17:49:48;7.80;99.90
75430;DHT22;64127;51.488;5.462;2022-12-07T17:52:21;7.70;99.90
75430;DHT22;64127;51.488;5.462;2022-12-07T17:55:11;7.70;99.90
75430;DHT22;64127;51.488;5.462;2022-12-07T17:57:46;7.70;99.90
75430;DHT22;64127;51.488;5.462;2022-12-07T18:00:19;7.70;99.90
75430;DHT22;64127;51.488;5.462;2022-12-07T18:02:52;7.60;99.90
75430;DHT22;64127;51.488;5.462;2022-12-07T18:05:24;7.60;99.90
75430;DHT22;64127;51.488;5.462;2022-12-07T18:07:56;7.60;99.90
75430;DHT22;64127;51.488;5.462;2022-12-07T18:10:29;7.60;99.90
75430;DHT22;64127;51.488;5.462;2022-12-07T18:13:01;7.60;99.90
75430;DHT22;64127;51.488;5.462;2022-12-07T18:16:05;7.60;99.90
75430;DHT22;64127;51.488;5.462;2022-12-07T18:18:40;7.60;99.90
75430;DHT22;64127;51.488;5.462;2022-12-07T18:21:18;7.60;99.90
75430;DHT22;64127;51.488;5.462;2022-12-07T18:23:55;7.60;99.90
75430;DHT22;64127;51.488;5.462;2022-12-07T18:26:31;7.60;99.90
75430;DHT22;64127;51.488;5.462;2022-12-07T18:29:12;7.60;99.90
75430;DHT22;64127;51.488;5.462;2022-12-07T18:31:46;7.60;99.90
75430;DHT22;64127;51.488;5.462;2022-12-07T18:34:19;7.60;99.90
75430;DHT22;64127;51.488;5.462;2022-12-07T18:36:51;7.60;99.90
75430;DHT22;64127;51.488;5.462;2022-12-07T18:39:24;7.50;99.90
75430;DHT22;64127;51.488;5.462;2022-12-07T18:42:04;7.50;99.90
75430;DHT22;64127;51.488;5.462;2022-12-07T18:44:36;7.50;99.90
75430;DHT22;64127;51.488;5.462;2022-12-07T18:47:08;7.50;99.90
75430;DHT22;64127;51.488;5.462;2022-12-07T18:49:40;7.50;99.90
75430;DHT22;64127;51.488;5.462;2022-12-07T18:52:15;7.50;99.90
75430;DHT22;64127;51.488;5.462;2022-12-07T18:54:47;7.60;99.90
75430;DHT22;64127;51.488;5.462;2022-12-07T18:57:19;7.60;99.90
75430;DHT22;64127;51.488;5.462;2022-12-07T18:59:54;7.60;99.90
75430;DHT22;64127;51.488;5.462;2022-12-07T19:02:26;7.50;99.90
75430;DHT22;64127;51.488;5.462;2022-12-07T19:04:58;7.50;99.90
75430;DHT22;64127;51.488;5.462;2022-12-07T19:07:33;7.50;99.90